createdAt,value
2019-02-28T00:00:47.666Z,6.69
2019-02-28T00:01:55.939Z,6.67
2019-02-28T00:03:04.225Z,6.67
2019-02-28T00:04:12.332Z,6.68
2019-02-28T00:05:20.444Z,6.69
2019-02-28T00:06:28.674Z,6.71
2019-02-28T00:07:37.071Z,6.69
2019-02-28T00:08:45.194Z,6.69
2019-02-28T00:09:57.399Z,6.69
2019-02-28T00:11:05.032Z,6.72
2019-02-28T00:12:14.424Z,6.73
2019-02-28T00:13:22.907Z,6.74
2019-02-28T00:14:31.196Z,6.77
2019-02-28T00:15:39.579Z,6.78
2019-02-28T00:16:47.410Z,6.79
2019-02-28T00:17:55.738Z,6.79
2019-02-28T00:19:03.884Z,6.78
2019-02-28T00:20:11.954Z,6.79
2019-02-28T00:21:20.404Z,6.81
2019-02-28T00:22:28.545Z,6.80
2019-02-28T00:23:38.000Z,6.79
2019-02-28T00:24:45.991Z,6.78
2019-02-28T00:25:54.003Z,6.78
2019-02-28T00:27:02.297Z,6.77
2019-02-28T00:28:10.584Z,6.77
2019-02-28T00:29:18.799Z,6.78
2019-02-28T00:30:26.866Z,6.78
2019-02-28T00:31:34.845Z,6.77
2019-02-28T00:32:42.837Z,6.76
2019-02-28T00:33:50.808Z,6.74
2019-02-28T00:34:58.924Z,6.74
2019-02-28T00:36:07.066Z,6.73
2019-02-28T00:37:15.162Z,6.73
2019-02-28T00:38:23.362Z,6.72
2019-02-28T00:39:34.740Z,6.72
2019-02-28T00:40:40.966Z,6.70
2019-02-28T00:41:48.987Z,6.71
2019-02-28T00:42:57.190Z,6.69
2019-02-28T00:44:05.601Z,6.69
2019-02-28T00:45:15.425Z,6.67
2019-02-28T00:46:23.623Z,6.69
2019-02-28T00:47:31.825Z,6.69
2019-02-28T00:48:40.128Z,6.69
2019-02-28T00:49:48.012Z,6.71
2019-02-28T00:50:58.466Z,6.69
2019-02-28T00:52:05.758Z,6.69
2019-02-28T00:53:13.680Z,6.69
2019-02-28T00:54:25.742Z,6.69
2019-02-28T00:55:33.723Z,6.69
2019-02-28T00:56:41.825Z,6.70
2019-02-28T00:57:50.120Z,6.72
2019-02-28T00:59:00.506Z,6.72
2019-02-28T01:00:14.693Z,6.73
2019-02-28T01:01:22.827Z,6.73
2019-02-28T01:02:31.009Z,6.71
2019-02-28T01:03:39.370Z,6.73
2019-02-28T01:04:47.270Z,6.70
2019-02-28T01:05:55.525Z,6.70
2019-02-28T01:07:03.505Z,6.70
2019-02-28T01:08:11.578Z,6.71
2019-02-28T01:09:19.663Z,6.72
2019-02-28T01:10:27.848Z,6.72
2019-02-28T01:11:35.994Z,6.73
2019-02-28T01:12:44.010Z,6.75
2019-02-28T01:13:52.184Z,6.77
2019-02-28T01:15:00.316Z,6.77
2019-02-28T01:16:08.374Z,6.79
2019-02-28T01:17:16.872Z,6.79
2019-02-28T01:18:25.202Z,6.79
2019-02-28T01:19:33.360Z,6.79
2019-02-28T01:20:41.969Z,6.78
2019-02-28T01:21:49.973Z,6.78
2019-02-28T01:22:58.528Z,6.79
2019-02-28T01:24:07.384Z,6.77
2019-02-28T01:25:18.143Z,6.76
2019-02-28T01:26:26.251Z,6.77
2019-02-28T01:27:34.378Z,6.75
2019-02-28T01:28:43.010Z,6.73
2019-02-28T01:29:51.174Z,6.73
2019-02-28T01:30:59.287Z,6.70
2019-02-28T01:32:07.198Z,6.69
2019-02-28T01:33:15.071Z,6.67
2019-02-28T01:34:23.158Z,6.64
2019-02-28T01:35:31.072Z,6.64
2019-02-28T01:36:39.371Z,6.64
2019-02-28T01:37:47.282Z,6.63
2019-02-28T01:38:57.823Z,6.63
2019-02-28T01:40:08.054Z,6.62
2019-02-28T01:41:15.982Z,6.62
2019-02-28T01:42:23.967Z,6.59
2019-02-28T01:43:32.226Z,6.56
2019-02-28T01:44:40.670Z,6.56
2019-02-28T01:45:48.916Z,6.56
2019-02-28T01:46:56.964Z,6.57
2019-02-28T01:48:05.139Z,6.57
2019-02-28T01:49:13.002Z,6.59
2019-02-28T01:50:21.142Z,6.60
2019-02-28T01:51:35.700Z,6.59
2019-02-28T01:52:44.415Z,6.56
2019-02-28T01:53:50.470Z,6.54
2019-02-28T01:54:59.181Z,6.53
2019-02-28T01:56:07.267Z,6.53
2019-02-28T01:57:15.195Z,6.52
2019-02-28T01:58:23.545Z,6.51
2019-02-28T01:59:31.807Z,6.52
2019-02-28T02:00:40.179Z,6.51
2019-02-28T02:01:48.434Z,6.52
2019-02-28T02:02:56.864Z,6.56
2019-02-28T02:04:04.949Z,6.58
2019-02-28T02:05:13.269Z,6.58
2019-02-28T02:06:22.591Z,6.61
2019-02-28T02:07:33.353Z,6.61
2019-02-28T02:08:41.671Z,6.59
2019-02-28T02:09:50.437Z,6.57
2019-02-28T02:10:58.775Z,6.56
2019-02-28T02:12:06.897Z,6.57
2019-02-28T02:13:15.245Z,6.55
2019-02-28T02:14:23.345Z,6.52
2019-02-28T02:15:31.944Z,6.53
2019-02-28T02:16:40.239Z,6.52
2019-02-28T02:17:48.753Z,6.52
2019-02-28T02:18:56.961Z,6.52
2019-02-28T02:20:11.258Z,6.50
2019-02-28T02:21:19.796Z,6.45
2019-02-28T02:22:27.881Z,6.47
2019-02-28T02:23:35.782Z,6.46
2019-02-28T02:24:44.188Z,6.46
2019-02-28T02:25:52.295Z,6.43
2019-02-28T02:27:00.519Z,6.44
2019-02-28T02:28:08.600Z,6.43
2019-02-28T02:29:16.693Z,6.42
2019-02-28T02:30:25.868Z,6.44
2019-02-28T02:31:34.114Z,6.44
2019-02-28T02:32:42.367Z,6.45
2019-02-28T02:33:52.425Z,6.44
2019-02-28T02:35:05.806Z,6.44
2019-02-28T02:36:10.075Z,6.45
2019-02-28T02:37:18.029Z,6.46
2019-02-28T02:38:26.044Z,6.45
2019-02-28T02:39:34.011Z,6.45
2019-02-28T02:40:42.009Z,6.45
2019-02-28T02:41:50.474Z,6.46
2019-02-28T02:42:58.476Z,6.46
2019-02-28T02:44:06.648Z,6.46
2019-02-28T02:45:16.235Z,6.44
2019-02-28T02:46:24.290Z,6.46
2019-02-28T02:47:32.648Z,6.46
2019-02-28T02:48:42.289Z,6.45
2019-02-28T02:49:56.120Z,6.44
2019-02-28T02:51:00.481Z,6.45
2019-02-28T02:52:08.438Z,6.45
2019-02-28T02:53:16.549Z,6.44
2019-02-28T02:54:24.552Z,6.44
2019-02-28T02:55:32.855Z,6.44
2019-02-28T02:56:42.063Z,6.45
2019-02-28T02:57:51.900Z,6.47
2019-02-28T02:59:02.120Z,6.45
2019-02-28T03:00:16.250Z,6.45
2019-02-28T03:01:24.690Z,6.42
2019-02-28T03:02:33.138Z,6.43
2019-02-28T03:03:44.235Z,6.42
2019-02-28T03:04:58.020Z,6.41
2019-02-28T03:06:01.918Z,6.42
2019-02-28T03:07:10.401Z,6.42
2019-02-28T03:08:18.509Z,6.41
2019-02-28T03:09:26.602Z,6.39
2019-02-28T03:10:34.794Z,6.39
2019-02-28T03:11:42.989Z,6.39
2019-02-28T03:12:51.423Z,6.36
2019-02-28T03:13:59.700Z,6.37
2019-02-28T03:15:13.542Z,6.36
2019-02-28T03:16:21.810Z,6.39
2019-02-28T03:17:30.322Z,6.40
2019-02-28T03:18:38.699Z,6.41
2019-02-28T03:19:46.960Z,6.44
2019-02-28T03:20:55.600Z,6.45
2019-02-28T03:22:03.685Z,6.47
2019-02-28T03:23:11.868Z,6.49
2019-02-28T03:24:19.999Z,6.51
2019-02-28T03:25:29.010Z,6.51
2019-02-28T03:26:41.363Z,6.51
2019-02-28T03:27:46.769Z,6.52
2019-02-28T03:28:55.255Z,6.52
2019-02-28T03:30:03.323Z,6.52
2019-02-28T03:31:14.710Z,6.52
2019-02-28T03:32:21.143Z,6.50
2019-02-28T03:33:29.324Z,6.50
2019-02-28T03:34:37.438Z,6.51
2019-02-28T03:35:45.378Z,6.48
2019-02-28T03:36:57.001Z,6.47
2019-02-28T03:38:10.639Z,6.43
2019-02-28T03:39:13.035Z,6.43
2019-02-28T03:40:21.302Z,6.40
2019-02-28T03:41:29.492Z,6.39
2019-02-28T03:42:37.515Z,6.41
2019-02-28T03:43:45.779Z,6.40
2019-02-28T03:44:57.128Z,6.36
2019-02-28T03:46:06.394Z,6.34
2019-02-28T03:47:13.381Z,6.32
2019-02-28T03:48:21.585Z,6.33
2019-02-28T03:49:29.734Z,6.29
2019-02-28T03:50:37.698Z,6.29
2019-02-28T03:51:45.954Z,6.28
2019-02-28T03:52:54.463Z,6.26
2019-02-28T03:54:02.588Z,6.25
2019-02-28T03:55:13.802Z,6.25
2019-02-28T03:56:22.105Z,6.26
2019-02-28T03:57:30.132Z,6.25
2019-02-28T03:58:42.873Z,6.22
2019-02-28T03:59:55.366Z,6.24
2019-02-28T04:00:58.059Z,6.22
2019-02-28T04:02:06.326Z,6.24
2019-02-28T04:03:14.377Z,6.26
2019-02-28T04:04:22.463Z,6.25
2019-02-28T04:05:30.650Z,6.26
2019-02-28T04:06:40.713Z,6.26
2019-02-28T04:07:52.920Z,6.26
2019-02-28T04:09:07.332Z,6.27
2019-02-28T04:10:11.450Z,6.27
2019-02-28T04:11:19.485Z,6.25
2019-02-28T04:12:27.662Z,6.25
2019-02-28T04:13:35.778Z,6.23
2019-02-28T04:14:43.977Z,6.21
2019-02-28T04:16:07.787Z,6.20
2019-02-28T04:17:02.317Z,6.19
2019-02-28T04:18:10.503Z,6.19
2019-02-28T04:19:22.668Z,6.16
2019-02-28T04:20:35.909Z,6.18
2019-02-28T04:21:38.123Z,6.19
2019-02-28T04:22:46.165Z,6.22
2019-02-28T04:23:54.492Z,6.24
2019-02-28T04:25:02.666Z,6.26
2019-02-28T04:26:10.685Z,6.28
2019-02-28T04:27:18.740Z,6.30
2019-02-28T04:28:26.923Z,6.31
2019-02-28T04:29:35.175Z,6.33
2019-02-28T04:30:44.094Z,6.32
2019-02-28T04:31:52.575Z,6.32
2019-02-28T04:33:02.359Z,6.33
2019-02-28T04:34:13.478Z,6.34
2019-02-28T04:35:24.301Z,6.35
2019-02-28T04:36:35.499Z,6.36
2019-02-28T04:37:44.910Z,6.36
2019-02-28T04:38:51.696Z,6.36
2019-02-28T04:40:00.238Z,6.34
2019-02-28T04:41:08.337Z,6.35
2019-02-28T04:42:16.425Z,6.36
2019-02-28T04:43:24.730Z,6.36
2019-02-28T04:44:32.791Z,6.36
2019-02-28T04:45:41.268Z,6.35
2019-02-28T04:46:49.768Z,6.35
2019-02-28T04:47:58.236Z,6.33
2019-02-28T04:49:06.407Z,6.33
2019-02-28T04:50:14.983Z,6.34
2019-02-28T04:51:23.213Z,6.34
2019-02-28T04:52:31.415Z,6.34
2019-02-28T04:53:40.043Z,6.35
2019-02-28T04:54:48.369Z,6.33
2019-02-28T04:55:56.541Z,6.33
2019-02-28T04:57:04.747Z,6.32
2019-02-28T04:58:12.819Z,6.30
2019-02-28T04:59:20.945Z,6.29
2019-02-28T05:00:28.990Z,6.29
2019-02-28T05:01:37.048Z,6.28
2019-02-28T05:02:45.242Z,6.25
2019-02-28T05:03:53.425Z,6.25
2019-02-28T05:05:01.539Z,6.24
2019-02-28T05:06:09.637Z,6.25
2019-02-28T05:07:17.565Z,6.24
2019-02-28T05:08:25.709Z,6.24
2019-02-28T05:09:33.657Z,6.23
2019-02-28T05:10:41.637Z,6.22
2019-02-28T05:11:50.105Z,6.21
2019-02-28T05:12:58.751Z,6.20
2019-02-28T05:14:07.186Z,6.18
2019-02-28T05:15:16.416Z,6.16
2019-02-28T05:16:24.456Z,6.17
2019-02-28T05:17:32.650Z,6.14
2019-02-28T05:18:40.748Z,6.14
2019-02-28T05:19:48.823Z,6.12
2019-02-28T05:20:57.332Z,6.14
2019-02-28T05:22:05.329Z,6.14
2019-02-28T05:23:14.291Z,6.14
2019-02-28T05:24:22.399Z,6.15
2019-02-28T05:25:30.617Z,6.16
2019-02-28T05:26:38.603Z,6.18
2019-02-28T05:27:46.775Z,6.18
2019-02-28T05:28:55.202Z,6.19
2019-02-28T05:30:03.777Z,6.19
2019-02-28T05:31:11.902Z,6.19
2019-02-28T05:32:20.000Z,6.19
2019-02-28T05:33:28.358Z,6.21
2019-02-28T05:34:36.369Z,6.22
2019-02-28T05:35:44.557Z,6.23
2019-02-28T05:36:52.669Z,6.22
2019-02-28T05:38:01.383Z,6.23
2019-02-28T05:39:09.503Z,6.24
2019-02-28T05:40:18.271Z,6.24
2019-02-28T05:41:26.788Z,6.26
2019-02-28T05:42:34.983Z,6.28
2019-02-28T05:43:43.197Z,6.28
2019-02-28T05:44:51.412Z,6.30
2019-02-28T05:46:00.372Z,6.30
2019-02-28T05:47:08.635Z,6.33
2019-02-28T05:48:16.870Z,6.34
2019-02-28T05:49:25.589Z,6.35
2019-02-28T05:50:33.782Z,6.35
2019-02-28T05:51:42.226Z,6.36
2019-02-28T05:52:50.362Z,6.36
2019-02-28T05:53:58.650Z,6.36
2019-02-28T05:55:09.433Z,6.35
2019-02-28T05:56:17.750Z,6.34
2019-02-28T05:57:26.620Z,6.36
2019-02-28T05:58:35.146Z,6.38
2019-02-28T05:59:43.614Z,6.39
2019-02-28T06:00:52.006Z,6.40
2019-02-28T06:02:00.327Z,6.42
2019-02-28T06:03:08.743Z,6.41
2019-02-28T06:04:16.768Z,6.42
2019-02-28T06:05:25.260Z,6.44
2019-02-28T06:06:33.184Z,6.44
2019-02-28T06:07:41.463Z,6.45
2019-02-28T06:08:49.427Z,6.45
2019-02-28T06:09:57.898Z,6.46
2019-02-28T06:11:06.152Z,6.47
2019-02-28T06:12:14.437Z,6.48
2019-02-28T06:13:22.741Z,6.49
2019-02-28T06:14:31.529Z,6.48
2019-02-28T06:15:39.731Z,6.49
2019-02-28T06:16:48.447Z,6.49
2019-02-28T06:17:56.863Z,6.50
2019-02-28T06:19:08.360Z,6.52
2019-02-28T06:20:16.898Z,6.51
2019-02-28T06:21:26.586Z,6.53
2019-02-28T06:22:36.315Z,6.53
2019-02-28T06:23:45.586Z,6.56
2019-02-28T06:24:53.878Z,6.59
2019-02-28T06:26:02.231Z,6.60
2019-02-28T06:27:10.646Z,6.62
2019-02-28T06:28:19.040Z,6.65
2019-02-28T06:29:27.152Z,6.69
2019-02-28T06:30:35.443Z,6.75
2019-02-28T06:31:45.478Z,6.77
2019-02-28T06:32:57.866Z,6.80
2019-02-28T06:34:05.681Z,6.83
2019-02-28T06:35:17.651Z,6.85
2019-02-28T06:36:25.687Z,6.85
2019-02-28T06:37:35.389Z,6.87
2019-02-28T06:38:43.364Z,6.88
2019-02-28T06:39:51.908Z,6.93
2019-02-28T06:41:00.242Z,6.95
2019-02-28T06:42:11.848Z,6.99
2019-02-28T06:43:19.489Z,7.02
2019-02-28T06:44:27.867Z,7.06
2019-02-28T06:45:37.625Z,7.09
2019-02-28T06:46:50.031Z,7.12
2019-02-28T06:48:00.792Z,7.16
2019-02-28T06:49:10.679Z,7.19
2019-02-28T06:50:20.733Z,7.25
2019-02-28T06:51:32.106Z,7.29
2019-02-28T06:52:46.429Z,7.32
2019-02-28T06:53:59.536Z,7.37
2019-02-28T06:55:19.281Z,7.41
2019-02-28T06:56:30.827Z,7.46
2019-02-28T06:57:39.178Z,7.52
2019-02-28T06:58:47.554Z,7.53
2019-02-28T06:59:55.816Z,7.56
2019-02-28T07:01:04.298Z,7.60
2019-02-28T07:02:12.538Z,7.63
2019-02-28T07:03:20.800Z,7.67
2019-02-28T07:04:29.112Z,7.71
2019-02-28T07:05:37.349Z,7.76
2019-02-28T07:06:45.338Z,7.81
2019-02-28T07:07:54.761Z,7.85
2019-02-28T07:09:03.154Z,7.90
2019-02-28T07:10:17.371Z,7.96
2019-02-28T07:11:25.414Z,8.00
2019-02-28T07:12:33.787Z,8.07
2019-02-28T07:13:42.211Z,8.12
2019-02-28T07:14:50.612Z,8.16
2019-02-28T07:15:59.835Z,8.21
2019-02-28T07:17:10.761Z,8.25
2019-02-28T07:18:19.849Z,8.29
2019-02-28T07:19:28.179Z,8.34
2019-02-28T07:20:36.701Z,8.42
2019-02-28T07:21:44.954Z,8.46
2019-02-28T07:22:55.598Z,8.50
2019-02-28T07:24:03.787Z,8.56
2019-02-28T07:25:13.931Z,8.61
2019-02-28T07:26:21.992Z,8.67
2019-02-28T07:27:30.051Z,8.71
2019-02-28T07:28:38.514Z,8.76
2019-02-28T07:29:46.872Z,8.81
2019-02-28T07:30:55.266Z,8.87
2019-02-28T07:32:03.822Z,8.91
2019-02-28T07:33:11.873Z,8.97
2019-02-28T07:34:23.798Z,9.01
2019-02-28T07:35:34.208Z,9.07
2019-02-28T07:36:41.470Z,9.12
2019-02-28T07:37:53.202Z,9.17
2019-02-28T07:39:01.290Z,9.22
2019-02-28T07:40:16.281Z,9.28
2019-02-28T07:41:26.461Z,9.35
2019-02-28T07:42:33.702Z,9.39
2019-02-28T07:43:45.909Z,9.44
2019-02-28T07:44:53.697Z,9.50
2019-02-28T07:46:04.499Z,9.55
2019-02-28T07:47:16.998Z,9.60
2019-02-28T07:48:26.399Z,9.65
2019-02-28T07:49:35.566Z,9.70
2019-02-28T07:50:43.584Z,9.76
2019-02-28T07:51:51.262Z,9.79
2019-02-28T07:52:59.781Z,9.87
2019-02-28T07:54:08.440Z,9.92
2019-02-28T07:55:21.557Z,9.97
2019-02-28T07:56:29.796Z,10.02
2019-02-28T07:57:38.213Z,10.09
2019-02-28T07:58:46.346Z,10.14
2019-02-28T07:59:54.715Z,10.17
2019-02-28T08:01:02.951Z,10.23
2019-02-28T08:02:11.322Z,10.29
2019-02-28T08:03:19.833Z,10.33
2019-02-28T08:04:27.910Z,10.38
2019-02-28T08:05:35.924Z,10.43
2019-02-28T08:06:43.860Z,10.49
2019-02-28T08:07:52.714Z,10.56
2019-02-28T08:09:01.791Z,10.61
2019-02-28T08:10:29.904Z,10.66
2019-02-28T08:11:37.918Z,10.71
2019-02-28T08:12:46.013Z,10.75
2019-02-28T08:13:55.545Z,10.81
2019-02-28T08:15:04.665Z,10.86
2019-02-28T08:16:12.789Z,10.91
2019-02-28T08:17:20.799Z,10.95
2019-02-28T08:18:28.953Z,10.99
2019-02-28T08:19:36.898Z,11.04
2019-02-28T08:20:45.006Z,11.08
2019-02-28T08:21:53.280Z,11.13
2019-02-28T08:23:01.369Z,11.16
2019-02-28T08:24:09.799Z,11.20
2019-02-28T08:25:18.462Z,11.22
2019-02-28T08:26:26.462Z,11.27
2019-02-28T08:27:34.680Z,11.28
2019-02-28T08:28:43.163Z,11.35
2019-02-28T08:29:51.251Z,11.39
2019-02-28T08:30:59.674Z,11.42
2019-02-28T08:32:08.219Z,11.47
2019-02-28T08:33:17.173Z,11.53
2019-02-28T08:34:25.390Z,11.57
2019-02-28T08:35:34.975Z,11.61
2019-02-28T08:36:43.823Z,11.64
2019-02-28T08:37:57.153Z,11.70
2019-02-28T08:39:02.798Z,11.71
2019-02-28T08:40:16.329Z,11.73
2019-02-28T08:41:25.695Z,11.77
2019-02-28T08:42:38.648Z,11.81
2019-02-28T08:43:44.579Z,11.85
2019-02-28T08:44:58.099Z,11.87
2019-02-28T08:46:09.561Z,11.91
2019-02-28T08:47:13.171Z,11.94
2019-02-28T08:48:21.253Z,11.99
2019-02-28T08:49:29.481Z,12.03
2019-02-28T08:50:37.728Z,12.08
2019-02-28T08:51:46.020Z,12.10
2019-02-28T08:53:03.796Z,12.14
2019-02-28T08:54:11.750Z,12.20
2019-02-28T08:55:28.144Z,12.23
2019-02-28T08:56:29.710Z,12.25
2019-02-28T08:57:37.918Z,12.29
2019-02-28T08:58:45.882Z,12.32
2019-02-28T08:59:56.114Z,12.36
2019-02-28T09:01:06.533Z,12.40
2019-02-28T09:02:18.320Z,12.45
2019-02-28T09:03:27.423Z,12.48
2019-02-28T09:04:41.025Z,12.54
2019-02-28T09:05:44.677Z,12.57
2019-02-28T09:06:53.090Z,12.61
2019-02-28T09:08:01.584Z,12.65
2019-02-28T09:09:12.149Z,12.70
2019-02-28T09:10:23.215Z,12.74
2019-02-28T09:11:31.311Z,12.76
2019-02-28T09:12:39.581Z,12.76
2019-02-28T09:13:47.668Z,12.77
2019-02-28T09:14:56.342Z,12.78
2019-02-28T09:16:05.548Z,12.81
2019-02-28T09:17:15.528Z,12.86
2019-02-28T09:18:23.698Z,12.92
2019-02-28T09:19:32.638Z,12.94
2019-02-28T09:20:45.107Z,12.98
2019-02-28T09:21:52.885Z,13.04
2019-02-28T09:23:02.186Z,13.07
2019-02-28T09:24:12.696Z,13.15
2019-02-28T09:25:26.948Z,13.20
2019-02-28T09:26:35.309Z,13.24
2019-02-28T09:27:43.783Z,13.26
2019-02-28T09:28:51.838Z,13.28
2019-02-28T09:29:59.989Z,13.33
2019-02-28T09:31:08.283Z,13.37
2019-02-28T09:32:17.620Z,13.41
2019-02-28T09:33:25.905Z,13.45
2019-02-28T09:34:34.190Z,13.50
2019-02-28T09:35:45.328Z,13.53
2019-02-28T09:36:55.220Z,13.58
2019-02-28T09:38:06.425Z,13.61
2019-02-28T09:39:11.961Z,13.64
2019-02-28T09:40:20.303Z,13.68
2019-02-28T09:41:28.399Z,13.71
2019-02-28T09:42:36.650Z,13.75
2019-02-28T09:43:44.839Z,13.80
2019-02-28T09:44:53.200Z,13.82
2019-02-28T09:46:01.410Z,13.85
2019-02-28T09:47:11.716Z,13.86
2019-02-28T09:48:19.682Z,13.87
2019-02-28T09:49:27.903Z,13.88
2019-02-28T09:50:35.872Z,13.89
2019-02-28T09:51:44.170Z,13.88
2019-02-28T09:52:52.494Z,13.88
2019-02-28T09:54:00.579Z,13.90
2019-02-28T09:55:10.820Z,13.92
2019-02-28T09:56:19.474Z,13.95
2019-02-28T09:57:27.698Z,13.97
2019-02-28T09:58:35.779Z,14.01
2019-02-28T09:59:43.897Z,14.04
2019-02-28T10:00:51.885Z,14.06
2019-02-28T10:02:01.823Z,14.07
2019-02-28T10:03:10.071Z,14.08
2019-02-28T10:04:18.452Z,14.08
2019-02-28T10:05:26.942Z,14.11
2019-02-28T10:06:35.297Z,14.14
2019-02-28T10:07:43.306Z,14.17
2019-02-28T10:08:51.282Z,14.18
2019-02-28T10:09:59.352Z,14.20
2019-02-28T10:11:07.448Z,14.23
2019-02-28T10:12:15.623Z,14.25
2019-02-28T10:13:23.725Z,14.28
2019-02-28T10:14:31.944Z,14.30
2019-02-28T10:15:41.740Z,14.32
2019-02-28T10:16:52.650Z,14.34
2019-02-28T10:18:00.732Z,14.33
2019-02-28T10:19:10.247Z,14.33
2019-02-28T10:20:40.193Z,14.31
2019-02-28T10:21:52.148Z,14.30
2019-02-28T10:22:58.637Z,14.26
2019-02-28T10:24:06.914Z,14.26
2019-02-28T10:25:16.599Z,14.25
2019-02-28T10:26:25.141Z,14.28
2019-02-28T10:27:33.269Z,14.29
2019-02-28T10:28:41.838Z,14.28
2019-02-28T10:29:50.216Z,14.28
2019-02-28T10:30:58.579Z,14.27
2019-02-28T10:32:09.000Z,14.29
2019-02-28T10:33:17.349Z,14.31
2019-02-28T10:34:27.250Z,14.33
2019-02-28T10:35:36.740Z,14.36
2019-02-28T10:36:47.963Z,14.38
2019-02-28T10:37:58.550Z,14.41
2019-02-28T10:39:08.865Z,14.41
2019-02-28T10:40:25.853Z,14.43
2019-02-28T10:41:33.811Z,14.43
2019-02-28T10:42:41.838Z,14.43
2019-02-28T10:43:52.243Z,14.42
2019-02-28T10:45:00.009Z,14.42
2019-02-28T10:46:08.242Z,14.45
2019-02-28T10:47:16.623Z,14.46
2019-02-28T10:48:24.977Z,14.46
2019-02-28T10:49:33.043Z,14.46
2019-02-28T10:50:41.759Z,14.48
2019-02-28T10:51:50.442Z,14.48
2019-02-28T10:53:04.213Z,14.50
2019-02-28T10:54:11.234Z,14.51
2019-02-28T10:55:22.204Z,14.51
2019-02-28T10:56:32.049Z,14.53
2019-02-28T10:57:40.622Z,14.55
2019-02-28T10:58:50.076Z,14.54
2019-02-28T10:59:59.434Z,14.55
2019-02-28T11:01:10.598Z,14.61
2019-02-28T11:02:20.678Z,14.64
2019-02-28T11:03:32.428Z,14.70
2019-02-28T11:04:42.887Z,14.76
2019-02-28T11:05:53.344Z,14.81
2019-02-28T11:07:02.219Z,14.86
2019-02-28T11:08:13.677Z,14.92
2019-02-28T11:09:25.252Z,14.98
2019-02-28T11:10:41.297Z,15.05
2019-02-28T11:11:49.408Z,15.13
2019-02-28T11:12:57.925Z,15.22
2019-02-28T11:14:06.381Z,15.30
2019-02-28T11:15:15.582Z,15.37
2019-02-28T11:16:24.549Z,15.45
2019-02-28T11:17:34.157Z,15.52
2019-02-28T11:18:42.799Z,15.57
2019-02-28T11:19:51.987Z,15.63
2019-02-28T11:21:00.950Z,15.69
2019-02-28T11:22:09.305Z,15.78
2019-02-28T11:23:18.002Z,15.86
2019-02-28T11:24:28.057Z,15.89
2019-02-28T11:25:36.491Z,15.94
2019-02-28T11:26:45.597Z,15.97
2019-02-28T11:27:54.678Z,16.03
2019-02-28T11:29:03.904Z,16.09
2019-02-28T11:30:28.037Z,16.15
2019-02-28T11:31:36.264Z,16.19
2019-02-28T11:32:44.716Z,16.25
2019-02-28T11:33:53.058Z,16.32
2019-02-28T11:35:01.246Z,16.40
2019-02-28T11:36:09.349Z,16.46
2019-02-28T11:37:17.984Z,16.50
2019-02-28T11:38:25.944Z,16.57
2019-02-28T11:39:33.961Z,16.62
2019-02-28T11:40:43.907Z,16.67
2019-02-28T11:41:52.650Z,16.73
2019-02-28T11:43:04.114Z,16.77
2019-02-28T11:44:12.938Z,16.84
2019-02-28T11:45:30.906Z,16.88
2019-02-28T11:46:38.993Z,16.93
2019-02-28T11:47:49.087Z,16.98
2019-02-28T11:48:57.046Z,17.03
2019-02-28T11:50:07.825Z,17.05
2019-02-28T11:51:17.621Z,17.06
2019-02-28T11:52:27.362Z,17.06
2019-02-28T11:53:39.328Z,17.05
2019-02-28T11:54:45.873Z,17.05
2019-02-28T11:55:54.482Z,17.02
2019-02-28T11:57:04.425Z,16.99
2019-02-28T11:58:16.284Z,16.99
2019-02-28T11:59:24.106Z,17.00
2019-02-28T12:00:38.503Z,17.04
2019-02-28T12:01:48.344Z,17.06
2019-02-28T12:03:00.776Z,17.12
2019-02-28T12:04:06.994Z,17.15
2019-02-28T12:05:15.692Z,17.19
2019-02-28T12:06:25.766Z,17.17
2019-02-28T12:07:34.890Z,17.17
2019-02-28T12:08:45.015Z,17.20
2019-02-28T12:09:54.768Z,17.25
2019-02-28T12:11:04.065Z,17.26
2019-02-28T12:12:12.397Z,17.28
2019-02-28T12:13:20.750Z,17.30
2019-02-28T12:14:30.015Z,17.33
2019-02-28T12:15:40.739Z,17.34
2019-02-28T12:16:52.711Z,17.38
2019-02-28T12:18:03.626Z,17.40
2019-02-28T12:19:08.507Z,17.44
2019-02-28T12:20:16.987Z,17.49
2019-02-28T12:21:25.147Z,17.53
2019-02-28T12:22:33.232Z,17.56
2019-02-28T12:23:41.305Z,17.57
2019-02-28T12:24:49.695Z,17.62
2019-02-28T12:25:57.997Z,17.66
2019-02-28T12:27:06.332Z,17.71
2019-02-28T12:28:14.634Z,17.75
2019-02-28T12:29:22.880Z,17.77
2019-02-28T12:30:35.242Z,17.78
2019-02-28T12:31:43.351Z,17.80
2019-02-28T12:32:52.589Z,17.80
2019-02-28T12:34:00.861Z,17.80
2019-02-28T12:35:09.689Z,17.80
2019-02-28T12:36:17.617Z,17.78
2019-02-28T12:37:25.609Z,17.80
2019-02-28T12:38:33.930Z,17.79
2019-02-28T12:39:41.896Z,17.80
2019-02-28T12:40:49.950Z,17.81
2019-02-28T12:41:59.577Z,17.80
2019-02-28T12:43:10.496Z,17.81
2019-02-28T12:44:18.440Z,17.84
2019-02-28T12:45:33.091Z,17.86
2019-02-28T12:46:41.215Z,17.88
2019-02-28T12:47:49.435Z,17.90
2019-02-28T12:48:57.528Z,17.93
2019-02-28T12:50:09.806Z,17.97
2019-02-28T12:51:18.318Z,17.96
2019-02-28T12:52:27.034Z,17.97
2019-02-28T12:53:35.710Z,17.99
2019-02-28T12:54:43.753Z,18.04
2019-02-28T12:55:52.021Z,18.07
2019-02-28T12:57:00.256Z,18.12
2019-02-28T12:58:08.468Z,18.17
2019-02-28T12:59:16.756Z,18.22
2019-02-28T13:00:34.290Z,18.28
2019-02-28T13:01:42.241Z,18.31
2019-02-28T13:02:50.297Z,18.35
2019-02-28T13:04:00.653Z,18.38
2019-02-28T13:05:14.810Z,18.37
2019-02-28T13:06:23.849Z,18.35
2019-02-28T13:07:33.860Z,18.34
2019-02-28T13:08:42.383Z,18.33
2019-02-28T13:09:51.547Z,18.33
2019-02-28T13:11:04.531Z,18.31
2019-02-28T13:12:12.125Z,18.31
2019-02-28T13:13:23.239Z,18.32
2019-02-28T13:14:31.249Z,18.35
2019-02-28T13:15:39.394Z,18.35
2019-02-28T13:16:47.387Z,18.36
2019-02-28T13:17:55.911Z,18.37
2019-02-28T13:19:04.719Z,18.38
2019-02-28T13:20:18.534Z,18.40
2019-02-28T13:21:26.651Z,18.43
2019-02-28T13:22:36.400Z,18.45
2019-02-28T13:23:44.799Z,18.48
2019-02-28T13:24:53.109Z,18.52
2019-02-28T13:26:01.437Z,18.58
2019-02-28T13:27:10.874Z,18.62
2019-02-28T13:28:22.418Z,18.68
2019-02-28T13:29:32.509Z,18.72
2019-02-28T13:30:40.155Z,18.71
2019-02-28T13:31:48.865Z,18.69
2019-02-28T13:32:57.567Z,18.64
2019-02-28T13:34:05.987Z,18.60
2019-02-28T13:35:21.389Z,18.58
2019-02-28T13:36:29.843Z,18.58
2019-02-28T13:37:40.760Z,18.55
2019-02-28T13:38:54.864Z,18.53
2019-02-28T13:40:00.324Z,18.48
2019-02-28T13:41:08.860Z,18.44
2019-02-28T13:42:16.987Z,18.50
2019-02-28T13:43:32.836Z,18.58
2019-02-28T13:44:41.548Z,18.59
2019-02-28T13:45:50.774Z,18.62
2019-02-28T13:47:00.582Z,18.65
2019-02-28T13:48:09.890Z,18.69
2019-02-28T13:49:18.594Z,18.72
2019-02-28T13:50:34.529Z,18.75
2019-02-28T13:51:43.397Z,18.72
2019-02-28T13:52:52.585Z,18.70
2019-02-28T13:54:03.034Z,18.69
2019-02-28T13:55:18.942Z,18.66
2019-02-28T13:56:24.774Z,18.63
2019-02-28T13:57:33.272Z,18.61
2019-02-28T13:58:41.636Z,18.59
2019-02-28T13:59:49.968Z,18.59
2019-02-28T14:00:58.831Z,18.59
2019-02-28T14:02:07.574Z,18.61
2019-02-28T14:03:17.107Z,18.64
2019-02-28T14:04:35.451Z,18.66
2019-02-28T14:05:43.694Z,18.67
2019-02-28T14:06:55.797Z,18.68
2019-02-28T14:08:09.807Z,18.66
2019-02-28T14:09:18.868Z,18.69
2019-02-28T14:10:29.530Z,18.67
2019-02-28T14:11:37.127Z,18.67
2019-02-28T14:12:45.544Z,18.65
2019-02-28T14:13:53.660Z,18.66
2019-02-28T14:15:01.837Z,18.66
2019-02-28T14:16:10.702Z,18.66
2019-02-28T14:17:19.021Z,18.64
2019-02-28T14:18:31.252Z,18.64
2019-02-28T14:19:40.000Z,18.61
2019-02-28T14:20:49.497Z,18.63
2019-02-28T14:21:57.803Z,18.64
2019-02-28T14:23:08.006Z,18.62
2019-02-28T14:24:16.660Z,18.61
2019-02-28T14:25:25.504Z,18.59
2019-02-28T14:26:42.401Z,18.58
2019-02-28T14:27:43.920Z,18.57
2019-02-28T14:28:52.110Z,18.57
2019-02-28T14:30:00.235Z,18.57
2019-02-28T14:31:08.350Z,18.56
2019-02-28T14:32:16.622Z,18.53
2019-02-28T14:33:25.110Z,18.50
2019-02-28T14:34:33.008Z,18.49
2019-02-28T14:35:41.037Z,18.49
2019-02-28T14:36:49.667Z,18.49
2019-02-28T14:37:58.565Z,18.48
2019-02-28T14:39:11.223Z,18.44
2019-02-28T14:40:20.059Z,18.35
2019-02-28T14:41:31.769Z,18.31
2019-02-28T14:42:40.818Z,18.26
2019-02-28T14:43:48.220Z,18.23
2019-02-28T14:44:56.424Z,18.21
2019-02-28T14:46:05.036Z,18.18
2019-02-28T14:47:13.054Z,18.17
2019-02-28T14:48:21.284Z,18.18
2019-02-28T14:49:29.851Z,18.17
2019-02-28T14:50:39.512Z,18.18
2019-02-28T14:51:49.850Z,18.18
2019-02-28T14:52:59.474Z,18.15
2019-02-28T14:54:07.815Z,18.10
2019-02-28T14:55:20.918Z,18.02
2019-02-28T14:56:29.008Z,17.96
2019-02-28T14:57:37.593Z,17.88
2019-02-28T14:58:45.709Z,17.81
2019-02-28T14:59:53.983Z,17.74
2019-02-28T15:01:01.973Z,17.71
2019-02-28T15:02:12.286Z,17.67
2019-02-28T15:03:20.310Z,17.62
2019-02-28T15:04:28.824Z,17.58
2019-02-28T15:05:44.522Z,17.54